Time;durP1;ratioP1;P1;durP2;ratioP2;P2;SDS_P1;SDS_P2;PMS_P1;PMS_P2;Temp;Humidity;BMP_temperature;BMP_pressure;BME280_temperature;BME280_humidity;BME280_pressure;Samples;Min_cycle;Max_cycle;Signal;HPM_P1;HPM_P2
2022/05/31 00:01:57;;;;;;;10.90;8.07;;;;;;;;;;5021423;28;20073;-48
2022/05/31 00:04:31;;;;;;;14.40;7.68;;;;;;;;;;5027199;28;20347;-52
2022/05/31 00:06:58;;;;;;;12.93;8.27;;;;;;;;;;5025680;28;20057;-56
2022/05/31 00:09:25;;;;;;;14.65;7.75;;;;;;;;;;5024765;28;20088;-57
2022/05/31 00:11:58;;;;;;;10.13;7.85;;;;;;;;;;5019827;28;20103;-49
2022/05/31 00:14:24;;;;;;;12.25;7.97;;;;;;;;;;5022105;28;20085;-45
2022/05/31 00:16:51;;;;;;;12.47;7.77;;;;;;;;;;5026554;28;20123;-49
2022/05/31 00:19:24;;;;;;;11.63;7.25;;;;;;;;;;5021947;28;20053;-52
2022/05/31 00:21:59;;;;;;;18.95;8.13;;;;;;;;;;5023035;28;20136;-50
2022/05/31 00:24:32;;;;;;;9.98;7.60;;;;;;;;;;5024198;28;20843;-49
2022/05/31 00:26:58;;;;;;;11.70;7.20;;;;;;;;;;5021332;28;20077;-60
2022/05/31 00:29:25;;;;;;;9.10;7.47;;;;;;;;;;5022380;28;20136;-60
2022/05/31 00:31:59;;;;;;;10.50;7.65;;;;;;;;;;5020904;28;20488;-57
2022/05/31 00:34:25;;;;;;;8.57;7.65;;;;;;;;;;5023651;28;20073;-56
2022/05/31 00:36:52;;;;;;;13.63;8.73;;;;;;;;;;5022490;28;20119;-53
2022/05/31 00:39:26;;;;;;;9.63;7.25;;;;;;;;;;5023642;28;20057;-56
2022/05/31 00:42:11;;;;;;;12.73;7.20;;;;;;;;;;5025478;28;20569;-54
2022/05/31 00:44:45;;;;;;;8.45;7.35;;;;;;;;;;5024518;28;20049;-57
2022/05/31 00:47:25;;;;;;;9.68;6.32;;;;;;;;;;5019060;28;20144;-56
2022/05/31 00:50:01;;;;;;;8.27;6.50;;;;;;;;;;5021640;28;20109;-47
2022/05/31 00:52:33;;;;;;;12.93;6.97;;;;;;;;;;5021036;28;20080;-51
2022/05/31 00:55:15;;;;;;;11.30;7.28;;;;;;;;;;5023308;28;20651;-53
2022/05/31 00:57:45;;;;;;;12.02;7.18;;;;;;;;;;5022800;28;20057;-51
2022/05/31 01:00:18;;;;;;;9.18;7.70;;;;;;;;;;5023623;28;20096;-51
2022/05/31 01:02:46;;;;;;;10.65;7.40;;;;;;;;;;5021126;28;20156;-51
2022/05/31 01:05:12;;;;;;;;;;;;;;;;;;5022146;28;20061;-48
2022/05/31 01:07:46;;;;;;;12.18;7.03;;;;;;;;;;5018417;28;19968;-52
2022/05/31 01:10:13;;;;;;;12.10;7.63;;;;;;;;;;5023460;28;20057;-48
2022/05/31 01:12:42;;;;;;;13.55;6.88;;;;;;;;;;5024950;28;20053;-54
2022/05/31 01:15:15;;;;;;;10.23;7.97;;;;;;;;;;5023807;28;20088;-50
2022/05/31 01:17:42;;;;;;;13.77;7.93;;;;;;;;;;5020334;28;20085;-50
2022/05/31 01:20:13;;;;;;;9.55;7.43;;;;;;;;;;5024614;28;20131;-50
2022/05/31 01:22:51;;;;;;;12.45;7.25;;;;;;;;;;5017775;28;20076;-60
2022/05/31 01:25:36;;;;;;;11.77;7.55;;;;;;;;;;5023583;28;21287;-51
2022/05/31 01:28:22;;;;;;;10.35;8.18;;;;;;;;;;5023145;28;20481;-53
2022/05/31 01:30:56;;;;;;;12.43;7.72;;;;;;;;;;5023323;28;20671;-53
2022/05/31 01:33:30;;;;;;;13.40;8.30;;;;;;;;;;5019783;28;20124;-52
2022/05/31 01:36:01;;;;;;;9.77;7.80;;;;;;;;;;5020300;28;20050;-52
2022/05/31 01:38:31;;;;;;;10.07;7.53;;;;;;;;;;5023134;28;20144;-54
2022/05/31 01:41:08;;;;;;;14.20;7.35;;;;;;;;;;5020177;28;20576;-54
2022/05/31 01:43:34;;;;;;;10.23;7.18;;;;;;;;;;5021735;28;20469;-56
2022/05/31 01:46:09;;;;;;;12.25;7.88;;;;;;;;;;5022567;28;20057;-48
2022/05/31 01:48:50;;;;;;;12.52;7.75;;;;;;;;;;5022356;28;20073;-51
2022/05/31 01:51:16;;;;;;;19.50;8.55;;;;;;;;;;5021477;28;20088;-52
2022/05/31 01:53:50;;;;;;;12.48;8.27;;;;;;;;;;5020752;28;20143;-53
2022/05/31 01:56:18;;;;;;;9.05;7.60;;;;;;;;;;5024072;28;21775;-49
2022/05/31 01:58:47;;;;;;;11.85;8.73;;;;;;;;;;5021966;28;20461;-48
2022/05/31 02:01:26;;;;;;;83.60;11.95;;;;;;;;;;5020648;28;20424;-49
2022/05/31 02:03:53;;;;;;;24.65;9.73;;;;;;;;;;5023893;28;20050;-60
2022/05/31 02:06:28;;;;;;;11.48;7.72;;;;;;;;;;5021157;28;20100;-60
2022/05/31 02:09:03;;;;;;;16.10;9.50;;;;;;;;;;5020141;28;20080;-60
2022/05/31 02:11:29;;;;;;;12.30;7.40;;;;;;;;;;5026733;28;20089;-60
2022/05/31 02:13:58;;;;;;;14.90;8.45;;;;;;;;;;5021357;28;20076;-60
2022/05/31 02:16:31;;;;;;;18.50;8.82;;;;;;;;;;5019587;28;20464;-60
2022/05/31 02:19:18;;;;;;;19.10;8.83;;;;;;;;;;5019304;28;20064;-60
2022/05/31 02:21:53;;;;;;;33.83;10.43;;;;;;;;;;5017787;28;20046;-49
2022/05/31 02:24:21;;;;;;;69.40;12.88;;;;;;;;;;5020875;28;20057;-57
2022/05/31 02:26:47;;;;;;;208.75;16.27;;;;;;;;;;5018720;28;20465;-57
2022/05/31 02:29:23;;;;;;;26.88;10.20;;;;;;;;;;5023081;28;20081;-58
2022/05/31 02:31:49;;;;;;;12.02;8.57;;;;;;;;;;5021980;28;20073;-57
2022/05/31 02:34:17;;;;;;;16.00;8.48;;;;;;;;;;5025303;28;20077;-58
2022/05/31 02:36:51;;;;;;;11.68;8.02;;;;;;;;;;5029779;28;20092;-58
2022/05/31 02:39:17;;;;;;;11.88;8.40;;;;;;;;;;5030893;28;20080;-49
2022/05/31 02:41:45;;;;;;;11.75;8.63;;;;;;;;;;5022725;28;20064;-56
2022/05/31 02:44:18;;;;;;;14.30;8.63;;;;;;;;;;5044835;28;20113;-57
2022/05/31 02:46:58;;;;;;;16.95;9.15;;;;;;;;;;5047547;28;20111;-55
2022/05/31 02:49:32;;;;;;;13.40;8.82;;;;;;;;;;5049084;28;20087;-55
2022/05/31 02:51:59;;;;;;;11.80;8.35;;;;;;;;;;5046977;28;20096;-56
2022/05/31 02:54:25;;;;;;;11.63;8.73;;;;;;;;;;5047292;28;20089;-56
2022/05/31 02:56:59;;;;;;;14.10;8.18;;;;;;;;;;5046548;28;20157;-54
2022/05/31 02:59:25;;;;;;;10.65;7.97;;;;;;;;;;5043615;28;20127;-47
2022/05/31 03:01:52;;;;;;;13.32;9.38;;;;;;;;;;5052369;28;20143;-51
2022/05/31 03:04:25;;;;;;;13.55;9.65;;;;;;;;;;5028802;28;20084;-51
2022/05/31 03:06:51;;;;;;;11.95;8.55;;;;;;;;;;5027659;28;20057;-50
2022/05/31 03:09:17;;;;;;;13.43;8.90;;;;;;;;;;5028049;28;20552;-51
2022/05/31 03:11:53;;;;;;;11.70;8.95;;;;;;;;;;5025159;28;20054;-47
2022/05/31 03:14:22;;;;;;;16.60;9.00;;;;;;;;;;5025836;28;20635;-50
2022/05/31 03:16:51;;;;;;;11.90;8.75;;;;;;;;;;5027941;28;20543;-45
2022/05/31 03:19:26;;;;;;;14.60;9.60;;;;;;;;;;5028865;28;20092;-60
2022/05/31 03:21:58;;;;;;;14.45;9.48;;;;;;;;;;5025251;28;20084;-45
2022/05/31 03:24:38;;;;;;;16.13;9.90;;;;;;;;;;5024183;28;20081;-49
2022/05/31 03:27:06;;;;;;;14.68;8.98;;;;;;;;;;5027942;28;20525;-50
2022/05/31 03:29:40;;;;;;;14.23;10.30;;;;;;;;;;5023202;28;20061;-52
2022/05/31 03:32:07;;;;;;;13.18;10.15;;;;;;;;;;5027470;28;20111;-48
2022/05/31 03:34:34;;;;;;;15.60;10.05;;;;;;;;;;5028577;28;20116;-51
2022/05/31 03:37:07;;;;;;;14.93;10.25;;;;;;;;;;5025522;28;20057;-57
2022/05/31 03:39:33;;;;;;;15.93;10.63;;;;;;;;;;5029692;28;20089;-50
2022/05/31 03:42:00;;;;;;;15.52;9.20;;;;;;;;;;5026846;28;20088;-60
2022/05/31 03:44:33;;;;;;;16.75;10.20;;;;;;;;;;5027098;28;20050;-60
2022/05/31 03:47:06;;;;;;;15.80;10.38;;;;;;;;;;5020660;28;20104;-59
2022/05/31 03:49:40;;;;;;;20.27;10.00;;;;;;;;;;5024118;28;20046;-60
2022/05/31 03:52:07;;;;;;;13.98;9.18;;;;;;;;;;5025090;28;20092;-60
2022/05/31 03:54:35;;;;;;;11.05;8.35;;;;;;;;;;5021792;28;20109;-60
2022/05/31 03:57:12;;;;;;;11.95;9.43;;;;;;;;;;5024057;28;20092;-57
2022/05/31 03:59:39;;;;;;;14.15;9.63;;;;;;;;;;5023455;28;20092;-49
2022/05/31 04:02:05;;;;;;;14.40;10.70;;;;;;;;;;5022025;28;20080;-50
2022/05/31 04:04:39;;;;;;;14.13;9.60;;;;;;;;;;5023345;28;20053;-50
2022/05/31 04:07:05;;;;;;;17.90;10.07;;;;;;;;;;5021435;28;20073;-49
2022/05/31 04:09:31;;;;;;;14.50;10.77;;;;;;;;;;5027454;28;20093;-50
2022/05/31 04:12:05;;;;;;;15.77;11.13;;;;;;;;;;5023511;28;20107;-49
2022/05/31 04:14:31;;;;;;;15.90;10.15;;;;;;;;;;5021369;28;20085;-54
2022/05/31 04:16:58;;;;;;;18.50;11.38;;;;;;;;;;5024402;28;20482;-56
2022/05/31 04:19:32;;;;;;;15.55;11.25;;;;;;;;;;5022750;28;20057;-60
2022/05/31 04:21:58;;;;;;;14.80;10.48;;;;;;;;;;5022529;28;20093;-60
2022/05/31 04:24:25;;;;;;;11.73;10.15;;;;;;;;;;5021886;28;20528;-60
2022/05/31 04:26:58;;;;;;;14.18;9.85;;;;;;;;;;5023218;28;20049;-59
2022/05/31 04:29:24;;;;;;;11.52;9.30;;;;;;;;;;5022993;28;20089;-60
2022/05/31 04:31:50;;;;;;;11.25;8.93;;;;;;;;;;5022201;28;20041;-60
2022/05/31 04:34:24;;;;;;;9.85;8.20;;;;;;;;;;5022691;28;20084;-57
2022/05/31 04:36:50;;;;;;;9.48;8.40;;;;;;;;;;5025823;28;20084;-54
2022/05/31 04:39:17;;;;;;;16.42;8.25;;;;;;;;;;5020233;28;20489;-57
2022/05/31 04:41:53;;;;;;;13.13;8.32;;;;;;;;;;5027079;28;20100;-60
2022/05/31 04:44:19;;;;;;;10.88;7.57;;;;;;;;;;5022519;28;20053;-59
2022/05/31 04:46:48;;;;;;;12.02;8.13;;;;;;;;;;5011466;28;20079;-60
2022/05/31 04:49:28;;;;;;;10.35;8.02;;;;;;;;;;5002412;28;20057;-59
2022/05/31 04:51:54;;;;;;;12.15;7.50;;;;;;;;;;5000779;28;20050;-60
2022/05/31 04:54:23;;;;;;;14.07;7.10;;;;;;;;;;4998349;28;20132;-59
2022/05/31 04:56:59;;;;;;;13.18;8.48;;;;;;;;;;5000278;28;20105;-56
2022/05/31 04:59:27;;;;;;;10.20;7.90;;;;;;;;;;5000200;28;21313;-56
2022/05/31 05:01:53;;;;;;;9.18;7.47;;;;;;;;;;5001569;28;20109;-55
2022/05/31 05:04:26;;;;;;;9.82;7.72;;;;;;;;;;4990229;28;20054;-57
2022/05/31 05:06:52;;;;;;;8.07;7.28;;;;;;;;;;5007572;28;20058;-57
2022/05/31 05:09:19;;;;;;;9.95;7.47;;;;;;;;;;5006041;28;20502;-57
2022/05/31 05:11:52;;;;;;;14.32;8.25;;;;;;;;;;5003948;28;20421;-56
2022/05/31 05:14:20;;;;;;;12.65;8.45;;;;;;;;;;5003526;28;20118;-52
2022/05/31 05:16:47;;;;;;;12.32;7.55;;;;;;;;;;5006118;28;20116;-59
2022/05/31 05:19:21;;;;;;;8.60;7.55;;;;;;;;;;5005686;28;20050;-59
2022/05/31 05:21:48;;;;;;;8.15;6.78;;;;;;;;;;5000533;28;20085;-59
2022/05/31 05:24:22;;;;;;;16.48;7.35;;;;;;;;;;5000210;28;20530;-60
2022/05/31 05:26:57;;;;;;;8.38;7.15;;;;;;;;;;5001871;28;22239;-59
2022/05/31 05:32:15;;;;;;;10.95;7.22;;;;;;;;;;5005094;28;20129;-60
2022/05/31 05:34:41;;;;;;;13.63;5.80;;;;;;;;;;5003954;28;20093;-54
2022/05/31 05:37:08;;;;;;;6.45;5.82;;;;;;;;;;5003772;28;20085;-54
2022/05/31 05:39:41;;;;;;;8.30;6.10;;;;;;;;;;5004600;28;20089;-54
2022/05/31 05:42:12;;;;;;;7.85;6.00;;;;;;;;;;4999634;28;20050;-55
2022/05/31 05:44:39;;;;;;;14.68;5.88;;;;;;;;;;5001304;28;20155;-53
2022/05/31 05:47:19;;;;;;;7.82;5.75;;;;;;;;;;5016373;28;20110;-53
2022/05/31 05:49:46;;;;;;;7.20;5.80;;;;;;;;;;5024057;28;20108;-54
2022/05/31 05:52:16;;;;;;;9.65;5.50;;;;;;;;;;5021646;28;20135;-59
2022/05/31 05:54:49;;;;;;;7.70;6.20;;;;;;;;;;5024267;28;20524;-54
2022/05/31 05:57:15;;;;;;;6.63;5.40;;;;;;;;;;5023554;28;20049;-54
2022/05/31 05:59:42;;;;;;;10.20;5.57;;;;;;;;;;5021453;28;20085;-54
2022/05/31 06:02:24;;;;;;;8.73;5.53;;;;;;;;;;5025157;28;20095;-54
2022/05/31 06:05:12;;;;;;;8.02;6.13;;;;;;;;;;5023230;28;20059;-54
2022/05/31 06:07:46;;;;;;;7.97;6.47;;;;;;;;;;5023554;28;20128;-54
2022/05/31 06:10:14;;;;;;;6.37;5.63;;;;;;;;;;5021939;28;20088;-56
2022/05/31 06:12:43;;;;;;;10.45;6.28;;;;;;;;;;5026539;28;20112;-59
2022/05/31 06:15:18;;;;;;;9.73;6.07;;;;;;;;;;5022566;28;20107;-59
2022/05/31 06:17:46;;;;;;;8.73;6.70;;;;;;;;;;5022560;28;20100;-59
2022/05/31 06:20:13;;;;;;;8.85;6.25;;;;;;;;;;5018294;28;20474;-59
2022/05/31 06:22:46;;;;;;;7.13;6.47;;;;;;;;;;5021888;28;20080;-59
2022/05/31 06:25:14;;;;;;;10.98;6.05;;;;;;;;;;5019778;28;20077;-59
2022/05/31 06:27:40;;;;;;;8.82;5.75;;;;;;;;;;5023071;28;20049;-53
2022/05/31 06:30:15;;;;;;;8.00;5.75;;;;;;;;;;5021358;28;20089;-55
2022/05/31 06:32:41;;;;;;;8.60;6.00;;;;;;;;;;5004021;28;20057;-55
2022/05/31 06:35:08;;;;;;;9.40;5.93;;;;;;;;;;5018822;28;20137;-54
2022/05/31 06:37:41;;;;;;;8.60;6.28;;;;;;;;;;5020118;28;20088;-55
2022/05/31 06:40:08;;;;;;;9.15;5.95;;;;;;;;;;5026249;28;20093;-54
2022/05/31 06:42:35;;;;;;;7.40;5.85;;;;;;;;;;5022965;28;20085;-50
2022/05/31 06:45:09;;;;;;;5.32;4.78;;;;;;;;;;5022337;28;20084;-54
2022/05/31 06:47:42;;;;;;;7.93;5.63;;;;;;;;;;5024106;28;20107;-59
2022/05/31 06:50:16;;;;;;;8.70;4.90;;;;;;;;;;5020587;28;20115;-58
2022/05/31 06:56:48;;;;;;;6.15;4.63;;;;;;;;;;5021494;28;20058;-49
2022/05/31 06:58:30;;;;;;;8.82;5.20;;;;;;;;;;5009003;28;20096;-54
2022/05/31 07:01:05;;;;;;;7.85;4.65;;;;;;;;;;5020175;28;20068;-53
2022/05/31 07:03:31;;;;;;;7.88;4.72;;;;;;;;;;5020076;28;20053;-52
2022/05/31 07:05:58;;;;;;;8.43;4.72;;;;;;;;;;5021740;28;20057;-57
2022/05/31 07:08:32;;;;;;;6.82;4.93;;;;;;;;;;5019242;28;20089;-52
2022/05/31 07:11:01;;;;;;;7.32;4.65;;;;;;;;;;5020102;28;20111;-55
2022/05/31 07:13:28;;;;;;;5.90;3.70;;;;;;;;;;5023498;28;20520;-55
2022/05/31 07:16:01;;;;;;;4.22;3.30;;;;;;;;;;5022320;28;20135;-55
2022/05/31 07:18:39;;;;;;;6.07;3.70;;;;;;;;;;5015858;28;20066;-54
2022/05/31 07:21:12;;;;;;;4.22;3.40;;;;;;;;;;5023193;28;20112;-55
2022/05/31 07:23:40;;;;;;;3.45;3.00;;;;;;;;;;5021938;28;20089;-52
2022/05/31 07:26:08;;;;;;;3.83;3.20;;;;;;;;;;5025000;28;20111;-52
2022/05/31 07:29:01;;;;;;;2.97;2.67;;;;;;;;;;5023748;28;20052;-48
2022/05/31 07:31:27;;;;;;;5.05;3.08;;;;;;;;;;5023409;28;20185;-52
2022/05/31 07:34:16;;;;;;;3.33;2.70;;;;;;;;;;5024884;28;20167;-53
2022/05/31 07:36:42;;;;;;;3.03;2.70;;;;;;;;;;5025092;28;20080;-52
2022/05/31 07:39:17;;;;;;;6.53;2.80;;;;;;;;;;5025484;28;20609;-53
2022/05/31 07:41:43;;;;;;;2.85;2.38;;;;;;;;;;5021702;28;20099;-53
2022/05/31 07:44:10;;;;;;;5.72;2.22;;;;;;;;;;5025575;28;20058;-55
2022/05/31 07:46:56;;;;;;;3.75;2.30;;;;;;;;;;5024795;28;20084;-57
2022/05/31 07:49:30;;;;;;;4.93;2.47;;;;;;;;;;5020860;28;20081;-54
2022/05/31 07:52:06;;;;;;;5.70;2.72;;;;;;;;;;5024853;28;20062;-49
2022/05/31 07:54:33;;;;;;;3.10;2.80;;;;;;;;;;5024436;28;20512;-51
2022/05/31 07:56:59;;;;;;;5.28;2.90;;;;;;;;;;5020994;28;20053;-49
2022/05/31 07:59:33;;;;;;;5.45;2.85;;;;;;;;;;5024399;28;20080;-49
2022/05/31 08:02:00;;;;;;;3.65;2.92;;;;;;;;;;5024692;28;20524;-49
2022/05/31 08:04:27;;;;;;;3.22;2.45;;;;;;;;;;5023232;28;20081;-48
2022/05/31 08:07:00;;;;;;;3.30;3.00;;;;;;;;;;5025937;28;20089;-57
2022/05/31 08:09:27;;;;;;;5.50;3.00;;;;;;;;;;5022831;28;20082;-58
2022/05/31 08:11:54;;;;;;;3.83;2.63;;;;;;;;;;5026798;28;20480;-58
2022/05/31 08:14:27;;;;;;;7.65;3.17;;;;;;;;;;5022759;28;20810;-58
2022/05/31 08:16:53;;;;;;;4.53;3.00;;;;;;;;;;5024913;28;20701;-58
2022/05/31 08:19:20;;;;;;;6.32;2.90;;;;;;;;;;5023423;28;20092;-55
2022/05/31 08:21:53;;;;;;;4.93;2.80;;;;;;;;;;5023234;28;20096;-53
2022/05/31 08:24:19;;;;;;;3.75;2.33;;;;;;;;;;5023223;28;20096;-57
2022/05/31 08:27:06;;;;;;;3.47;2.55;;;;;;;;;;5021292;28;20140;-59
2022/05/31 08:29:39;;;;;;;3.75;2.60;;;;;;;;;;5024981;28;20063;-59
2022/05/31 08:32:06;;;;;;;3.47;2.30;;;;;;;;;;5022936;28;20050;-59
2022/05/31 08:34:33;;;;;;;6.28;2.75;;;;;;;;;;5025910;28;20085;-58
2022/05/31 08:37:06;;;;;;;3.88;2.63;;;;;;;;;;5026996;28;20497;-59
2022/05/31 08:39:33;;;;;;;5.57;3.05;;;;;;;;;;5022345;28;20050;-59
2022/05/31 08:42:09;;;;;;;5.28;2.90;;;;;;;;;;5025214;28;20136;-59
2022/05/31 08:44:49;;;;;;;4.80;2.40;;;;;;;;;;5027475;28;20057;-59
2022/05/31 08:47:31;;;;;;;6.93;2.83;;;;;;;;;;5024864;28;20093;-57
2022/05/31 08:53:14;;;;;;;3.63;2.10;;;;;;;;;;5025172;28;20520;-57
2022/05/31 08:58:44;;;;;;;2.85;2.30;;;;;;;;;;5024400;28;20053;-56
2022/05/31 09:01:19;;;;;;;2.45;2.00;;;;;;;;;;5024901;28;20054;-51
2022/05/31 09:03:59;;;;;;;2.50;1.77;;;;;;;;;;5023538;28;20527;-55
2022/05/31 09:06:38;;;;;;;2.67;2.13;;;;;;;;;;5022538;28;20457;-60
2022/05/31 09:09:16;;;;;;;2.30;1.77;;;;;;;;;;5020611;28;20077;-60
2022/05/31 09:11:58;;;;;;;3.05;2.00;;;;;;;;;;5022932;28;20131;-60
2022/05/31 09:14:43;;;;;;;4.25;2.30;;;;;;;;;;5022281;28;20096;-59
2022/05/31 09:17:23;;;;;;;2.92;1.92;;;;;;;;;;5020794;28;20116;-59
2022/05/31 09:20:06;;;;;;;3.42;1.95;;;;;;;;;;5021232;28;20123;-56
2022/05/31 09:22:43;;;;;;;3.33;2.17;;;;;;;;;;5020165;28;20571;-59
2022/05/31 09:25:09;;;;;;;1.70;1.60;;;;;;;;;;5023740;28;20081;-59
2022/05/31 09:27:38;;;;;;;2.10;1.90;;;;;;;;;;5022886;28;20119;-59
2022/05/31 09:30:26;;;;;;;1.90;1.60;;;;;;;;;;5017678;28;20057;-59
2022/05/31 09:32:52;;;;;;;1.85;1.70;;;;;;;;;;5021632;28;20559;-59
2022/05/31 09:35:41;;;;;;;3.15;1.92;;;;;;;;;;5021560;28;20086;-60
2022/05/31 09:38:17;;;;;;;1.80;1.70;;;;;;;;;;5020605;28;20088;-51
2022/05/31 09:41:07;;;;;;;2.22;1.90;;;;;;;;;;5022228;28;20096;-47
2022/05/31 09:43:39;;;;;;;2.78;2.10;;;;;;;;;;5022179;28;20088;-56
2022/05/31 09:46:35;;;;;;;3.88;1.80;;;;;;;;;;5019371;28;20049;-53
2022/05/31 09:49:27;;;;;;;2.58;1.40;;;;;;;;;;5025232;28;20064;-52
2022/05/31 09:52:00;;;;;;;6.13;1.73;;;;;;;;;;5019077;28;20093;-52
2022/05/31 09:57:23;;;;;;;1.60;1.50;;;;;;;;;;5020673;28;20588;-56
2022/05/31 09:59:50;;;;;;;5.25;2.40;;;;;;;;;;5023050;28;20156;-60
2022/05/31 10:02:30;;;;;;;2.50;2.03;;;;;;;;;;5026220;28;20084;-53
2022/05/31 10:05:16;;;;;;;4.78;2.33;;;;;;;;;;5023537;28;20053;-54
2022/05/31 10:07:43;;;;;;;3.50;2.13;;;;;;;;;;5026875;28;20057;-51
2022/05/31 10:10:18;;;;;;;5.45;2.63;;;;;;;;;;5019554;28;20163;-54
2022/05/31 10:12:55;;;;;;;3.03;2.13;;;;;;;;;;5020882;28;20493;-54
2022/05/31 10:15:31;;;;;;;3.60;2.75;;;;;;;;;;5018778;28;20175;-52
2022/05/31 10:18:04;;;;;;;3.20;2.90;;;;;;;;;;5018124;28;20429;-56
2022/05/31 10:20:50;;;;;;;2.63;2.42;;;;;;;;;;5014016;28;20595;-53
2022/05/31 10:23:20;;;;;;;3.33;2.80;;;;;;;;;;5021183;28;20053;-53
2022/05/31 10:25:54;;;;;;;5.05;2.78;;;;;;;;;;5022054;28;20087;-50
2022/05/31 10:28:31;;;;;;;3.30;2.60;;;;;;;;;;5021819;28;20077;-45
2022/05/31 10:31:13;;;;;;;5.18;2.63;;;;;;;;;;5019268;28;20544;-51
2022/05/31 10:33:40;;;;;;;3.00;2.30;;;;;;;;;;5020294;28;20133;-51
2022/05/31 10:36:15;;;;;;;5.05;2.42;;;;;;;;;;5022955;28;20093;-54
2022/05/31 10:38:43;;;;;;;2.40;2.20;;;;;;;;;;5020699;28;20583;-53
2022/05/31 10:41:17;;;;;;;2.47;2.28;;;;;;;;;;5022047;28;20064;-57
2022/05/31 10:44:10;;;;;;;4.45;2.33;;;;;;;;;;5021065;28;20140;-57
2022/05/31 10:46:45;;;;;;;3.83;2.30;;;;;;;;;;5003755;28;21107;-58
2022/05/31 10:49:26;;;;;;;3.38;2.30;;;;;;;;;;5020354;28;20057;-56
2022/05/31 10:51:56;;;;;;;4.25;2.30;;;;;;;;;;5021208;28;20501;-57
2022/05/31 10:54:32;;;;;;;4.65;2.00;;;;;;;;;;5021826;28;20103;-56
2022/05/31 10:56:58;;;;;;;3.42;2.20;;;;;;;;;;5024633;28;20084;-58
2022/05/31 10:59:30;;;;;;;3.03;1.70;;;;;;;;;;5026849;28;20410;-57
2022/05/31 11:02:15;;;;;;;2.28;1.75;;;;;;;;;;5023171;28;20123;-57
2022/05/31 11:04:47;;;;;;;3.70;1.75;;;;;;;;;;5026308;28;20455;-58
2022/05/31 11:07:23;;;;;;;2.15;1.90;;;;;;;;;;5026042;28;20077;-57
2022/05/31 11:13:05;;;;;;;2.10;1.80;;;;;;;;;;5021522;28;20109;-57
2022/05/31 11:15:37;;;;;;;4.20;2.10;;;;;;;;;;5023827;28;20103;-59
2022/05/31 11:18:26;;;;;;;2.78;2.00;;;;;;;;;;5022266;28;20077;-55
2022/05/31 11:20:52;;;;;;;6.35;1.77;;;;;;;;;;5023598;28;20058;-54
2022/05/31 11:23:54;;;;;;;3.65;1.70;;;;;;;;;;5026717;28;20081;-55
2022/05/31 11:26:20;;;;;;;4.95;2.08;;;;;;;;;;5000920;28;20518;-53
2022/05/31 11:29:33;;;;;;;2.97;1.65;;;;;;;;;;5023537;28;20049;-54
2022/05/31 11:32:07;;;;;;;4.25;1.70;;;;;;;;;;5023613;28;20548;-54
2022/05/31 11:34:59;;;;;;;1.95;1.70;;;;;;;;;;5024277;28;20096;-57
2022/05/31 11:37:32;;;;;;;3.38;1.85;;;;;;;;;;5021770;28;20053;-51
2022/05/31 11:40:27;;;;;;;4.10;1.80;;;;;;;;;;5024469;28;20591;-53
2022/05/31 11:43:13;;;;;;;3.15;1.67;;;;;;;;;;5025887;28;20056;-52
2022/05/31 11:46:04;;;;;;;2.55;2.00;;;;;;;;;;5027005;28;20065;-49
2022/05/31 11:48:40;;;;;;;3.35;1.83;;;;;;;;;;5027232;28;20092;-54
2022/05/31 11:51:24;;;;;;;1.92;1.60;;;;;;;;;;5022360;28;20068;-47
2022/05/31 11:53:51;;;;;;;2.97;1.67;;;;;;;;;;5027786;28;20156;-49
2022/05/31 11:56:24;;;;;;;1.95;1.70;;;;;;;;;;5025275;28;20136;-56
2022/05/31 11:58:55;;;;;;;2.65;1.88;;;;;;;;;;5022314;28;20539;-57
2022/05/31 12:01:21;;;;;;;3.63;1.60;;;;;;;;;;5024680;28;20115;-57
2022/05/31 12:03:55;;;;;;;1.88;1.50;;;;;;;;;;5021424;28;20068;-58
2022/05/31 12:06:34;;;;;;;2.80;1.50;;;;;;;;;;5021909;28;20591;-56
2022/05/31 12:09:16;;;;;;;2.38;1.70;;;;;;;;;;5024294;28;20460;-58
2022/05/31 12:11:51;;;;;;;2.20;1.70;;;;;;;;;;5025292;28;20049;-56
2022/05/31 12:14:26;;;;;;;2.95;1.90;;;;;;;;;;5023526;28;20042;-59
2022/05/31 12:16:52;;;;;;;1.60;1.40;;;;;;;;;;5025045;28;20136;-55
2022/05/31 12:19:27;;;;;;;3.35;1.90;;;;;;;;;;5024815;28;20053;-56
2022/05/31 12:22:19;;;;;;;4.70;2.28;;;;;;;;;;5020509;28;20057;-56
2022/05/31 12:24:51;;;;;;;2.97;2.05;;;;;;;;;;5023879;28;20085;-54
2022/05/31 12:27:42;;;;;;;5.72;2.10;;;;;;;;;;5017874;28;20058;-56
2022/05/31 12:30:19;;;;;;;3.97;2.10;;;;;;;;;;5023117;28;20628;-59
2022/05/31 12:32:54;;;;;;;4.28;2.30;;;;;;;;;;5022282;28;20053;-49
2022/05/31 12:35:29;;;;;;;2.72;2.30;;;;;;;;;;5022551;28;20054;-56
2022/05/31 12:38:04;;;;;;;4.20;2.10;;;;;;;;;;5024920;28;20053;-55
2022/05/31 12:40:33;;;;;;;4.85;1.98;;;;;;;;;;5026284;28;20049;-56
2022/05/31 12:43:00;;;;;;;4.15;2.55;;;;;;;;;;5025364;28;20140;-53
2022/05/31 12:45:34;;;;;;;3.20;2.53;;;;;;;;;;5024280;28;20774;-54
2022/05/31 12:48:16;;;;;;;5.82;2.67;;;;;;;;;;5023400;28;20053;-56
2022/05/31 12:50:56;;;;;;;4.97;2.20;;;;;;;;;;5024356;28;20084;-59
2022/05/31 12:53:43;;;;;;;2.47;2.03;;;;;;;;;;5021737;28;20054;-57
2022/05/31 12:56:37;;;;;;;5.03;2.17;;;;;;;;;;5021821;28;20349;-56
2022/05/31 12:59:04;;;;;;;4.40;1.80;;;;;;;;;;5020887;28;20079;-55
2022/05/31 13:01:56;;;;;;;2.88;1.65;;;;;;;;;;5022115;28;20083;-56
2022/05/31 13:04:26;;;;;;;3.22;2.03;;;;;;;;;;5024386;28;20064;-55
2022/05/31 13:07:04;;;;;;;3.45;1.75;;;;;;;;;;5021359;28;20045;-56
2022/05/31 13:09:32;;;;;;;2.30;2.03;;;;;;;;;;5025048;28;20049;-56
2022/05/31 13:20:49;;;;;;;3.88;2.00;;;;;;;;;;5019023;28;20057;-56
2022/05/31 13:23:18;;;;;;;3.00;1.90;;;;;;;;;;5022080;28;20052;-56
2022/05/31 13:25:53;;;;;;;4.25;1.50;;;;;;;;;;5021603;28;20091;-56
2022/05/31 13:28:26;;;;;;;2.83;1.60;;;;;;;;;;5021043;28;20093;-51
2022/05/31 13:30:56;;;;;;;8.65;2.13;;;;;;;;;;5018768;28;20091;-54
2022/05/31 13:33:23;;;;;;;3.08;1.70;;;;;;;;;;5020302;28;20103;-54
2022/05/31 13:36:04;;;;;;;4.10;1.80;;;;;;;;;;5025007;28;20089;-54
2022/05/31 13:38:33;;;;;;;3.67;1.80;;;;;;;;;;5024099;28;20057;-55
2022/05/31 13:41:08;;;;;;;3.35;1.70;;;;;;;;;;5019967;28;20155;-54
2022/05/31 13:43:50;;;;;;;8.73;1.95;;;;;;;;;;5025269;28;20107;-52
2022/05/31 13:46:42;;;;;;;1.95;1.63;;;;;;;;;;5021065;28;20478;-55
2022/05/31 13:49:23;;;;;;;3.65;1.60;;;;;;;;;;5020627;28;20060;-58
2022/05/31 13:52:01;;;;;;;2.15;1.90;;;;;;;;;;5023795;28;20560;-54
2022/05/31 13:54:29;;;;;;;1.70;1.60;;;;;;;;;;5023321;28;20050;-54
2022/05/31 13:56:59;;;;;;;4.95;1.83;;;;;;;;;;5020375;28;20080;-56
2022/05/31 13:59:35;;;;;;;3.83;1.88;;;;;;;;;;5024903;28;20045;-56
2022/05/31 14:02:02;;;;;;;2.78;1.75;;;;;;;;;;5019172;28;20058;-56
2022/05/31 14:04:32;;;;;;;3.38;1.90;;;;;;;;;;5020492;28;20623;-56
2022/05/31 14:07:08;;;;;;;4.75;1.80;;;;;;;;;;5004450;28;20139;-55
2022/05/31 14:09:36;;;;;;;2.50;1.50;;;;;;;;;;5013877;28;20092;-54
2022/05/31 14:12:10;;;;;;;6.35;2.15;;;;;;;;;;5021662;28;20107;-51
2022/05/31 14:14:44;;;;;;;3.42;1.65;;;;;;;;;;5026249;28;20062;-52
2022/05/31 14:17:12;;;;;;;3.70;1.67;;;;;;;;;;5022506;28;20053;-55
2022/05/31 14:19:45;;;;;;;2.53;1.35;;;;;;;;;;5022872;28;20057;-52
2022/05/31 14:22:27;;;;;;;5.40;1.30;;;;;;;;;;5019748;28;20085;-52
2022/05/31 14:24:54;;;;;;;1.27;1.10;;;;;;;;;;5017796;28;20121;-53
2022/05/31 14:27:28;;;;;;;1.83;1.30;;;;;;;;;;5020060;28;20057;-52
2022/05/31 14:29:59;;;;;;;2.63;1.63;;;;;;;;;;5019974;28;20104;-51
2022/05/31 14:32:35;;;;;;;4.25;1.50;;;;;;;;;;5023157;28;20049;-54
2022/05/31 14:35:16;;;;;;;2.05;1.38;;;;;;;;;;5024991;28;20057;-55
2022/05/31 14:37:46;;;;;;;1.60;1.50;;;;;;;;;;5021711;28;20076;-54
2022/05/31 14:40:24;;;;;;;3.33;1.60;;;;;;;;;;5017964;28;20516;-55
2022/05/31 14:42:56;;;;;;;2.10;1.42;;;;;;;;;;5023459;28;20061;-55
2022/05/31 14:45:30;;;;;;;3.40;1.27;;;;;;;;;;5021604;28;20643;-54
2022/05/31 14:48:03;;;;;;;;;;;;;;;;;;5022625;28;20062;-52
2022/05/31 14:50:38;;;;;;;1.80;1.33;;;;;;;;;;5024038;28;20088;-53
2022/05/31 14:53:18;;;;;;;1.65;1.50;;;;;;;;;;5019693;28;20053;-49
2022/05/31 14:55:51;;;;;;;1.50;1.38;;;;;;;;;;5020957;28;20136;-50
2022/05/31 14:58:37;;;;;;;1.83;1.10;;;;;;;;;;5020673;28;20061;-50
2022/05/31 15:01:14;;;;;;;3.67;1.42;;;;;;;;;;5018736;28;20089;-50
2022/05/31 15:04:06;;;;;;;2.47;1.30;;;;;;;;;;5022615;28;20050;-54
2022/05/31 15:06:41;;;;;;;1.90;1.40;;;;;;;;;;4998555;28;20518;-57
2022/05/31 15:09:19;;;;;;;4.68;1.30;;;;;;;;;;5023137;28;20088;-57
2022/05/31 15:20:37;;;;;;;5.40;1.25;;;;;;;;;;5019241;28;20058;-56
2022/05/31 15:23:14;;;;;;;3.83;1.33;;;;;;;;;;5019462;28;20052;-59
2022/05/31 15:25:41;;;;;;;2.30;1.23;;;;;;;;;;5016547;28;20631;-54
2022/05/31 15:28:08;;;;;;;2.05;1.13;;;;;;;;;;5019173;28;20132;-51
2022/05/31 15:30:56;;;;;;;4.95;1.58;;;;;;;;;;5017679;28;20112;-53
2022/05/31 15:33:43;;;;;;;2.85;1.20;;;;;;;;;;5019144;28;20045;-51
2022/05/31 15:36:26;;;;;;;5.25;1.42;;;;;;;;;;5018178;28;20140;-54
2022/05/31 15:38:55;;;;;;;1.38;1.27;;;;;;;;;;5020372;28;20185;-53
2022/05/31 15:41:29;;;;;;;1.58;1.45;;;;;;;;;;5017806;28;20081;-60
2022/05/31 15:43:59;;;;;;;2.30;1.23;;;;;;;;;;5024528;28;20116;-53
2022/05/31 15:46:27;;;;;;;2.80;1.48;;;;;;;;;;5024420;28;20050;-57
2022/05/31 15:49:07;;;;;;;3.28;1.30;;;;;;;;;;5026721;28;20089;-56
2022/05/31 15:51:36;;;;;;;1.55;1.00;;;;;;;;;;5021486;28;20053;-56